Date,TemperatureHighF,TemperatureAvgF,TemperatureLowF,DewpointHighF,DewpointAvgF,DewpointLowF,HumidityHigh,HumidityAvg,HumidityLow,PressureMaxIn,PressureMinIn,WindSpeedMaxMPH,WindSpeedAvgMPH,GustSpeedMaxMPH,PrecipitationSumIn
2013-3-1,59.0,43.4,30.0,21.0,14.3,5.0,43,31,20,30.40,30.27,9,4,19,0.00
2013-3-2,65.0,48.6,33.0,27.0,20.7,16.0,59,36,16,30.45,30.22,8,2,16,0.00
2013-3-3,66.0,50.5,32.0,24.0,15.1,-5.0,52,28,6,30.23,29.91,9,2,19,0.00
2013-3-4,62.0,51.7,40.0,24.0,20.2,16.0,44,29,20,30.13,29.83,9,3,22,0.00
2013-3-5,59.0,44.9,29.0,24.0,16.3,0.0,66,36,10,30.32,30.13,3,1,10,0.00
2013-3-6,65.0,50.7,39.0,28.0,20.5,11.0,43,31,21,30.20,29.98,6,1,16,0.00
2013-3-7,69.0,53.4,35.0,24.0,16.0,10.0,39,24,12,30.10,29.93,5,1,20,0.00
2013-3-8,59.0,46.2,38.0,41.0,24.7,12.0,86,49,21,30.01,29.77,7,2,18,0.10
2013-3-9,44.0,36.6,30.0,34.0,25.5,19.0,86,65,40,29.98,29.78,6,2,17,0.04
2013-3-10,52.0,38.2,26.0,30.0,23.3,15.0,88,60,28,30.16,29.97,7,2,15,0.00
2013-3-11,61.0,44.0,28.0,21.0,17.1,9.0,64,38,13,30.20,30.03,7,2,17,0.00
2013-3-12,67.0,50.4,34.0,26.0,21.6,19.0,53,34,17,30.28,30.09,8,2,16,0.00
2013-3-13,70.0,51.9,33.0,30.0,22.6,16.0,62,35,15,30.40,30.25,5,1,15,0.00
2013-3-14,76.0,57.5,37.0,27.0,19.1,10.0,50,26,8,30.40,30.24,5,1,17,0.00
2013-3-15,78.0,60.3,43.0,24.0,14.7,7.0,33,19,7,30.27,30.00,4,1,14,0.00
2013-3-16,70.0,58.1,46.0,34.0,20.5,13.0,53,24,14,30.00,29.81,9,2,20,0.00
2013-3-17,68.0,52.7,38.0,34.0,20.1,-18.0,73,38,3,29.94,29.73,9,3,21,0.00
2013-3-18,66.0,51.7,38.0,17.0,7.7,2.0,32,18,8,30.03,29.88,9,3,20,0.00
2013-3-19,62.0,49.9,40.0,17.0,9.7,2.0,31,20,13,30.22,30.01,6,1,18,0.00
2013-3-20,64.0,48.4,31.0,27.0,18.8,13.0,50,32,19,30.27,29.91,5,2,16,0.00
2013-3-21,70.0,57.1,47.0,32.0,18.7,-5.0,50,27,5,29.92,29.68,12,4,26,0.00
2013-3-22,64.0,50.7,36.0,27.0,11.5,4.0,40,22,9,29.85,29.65,9,3,20,0.00
2013-3-23,48.0,38.5,26.0,25.0,0.8,-16.0,49,22,8,30.08,29.73,12,6,28,0.00
2013-3-24,53.0,36.1,20.0,1.0,-4.5,-14.0,30,18,10,30.11,29.91,9,2,21,0.00
2013-3-25,56.0,38.2,20.0,14.0,7.7,-1.0,58,30,15,30.22,30.06,7,2,17,0.00
2013-3-26,65.0,45.8,28.0,15.0,9.9,5.0,39,25,12,30.22,29.99,6,2,17,0.00
2013-3-27,71.0,55.4,38.0,22.0,11.1,2.0,39,19,7,30.13,30.00,6,2,17,0.00
2013-3-28,73.0,59.0,43.0,22.0,14.4,6.0,27,18,9,30.18,30.06,8,1,23,0.00
2013-3-29,73.0,58.9,46.0,27.0,18.5,14.0,31,22,11,30.24,30.09,5,1,12,0.00
2013-3-30,73.0,58.4,40.0,26.0,19.6,-99.9,39,24,12,30.22,30.03,6,2,13,0.00
2013-3-31,72.0,59.7,46.0,34.0,27.6,24.0,48,31,18,30.17,30.00,4,1,10,0.00